Trabzon — 9HA2783 — position and weather

sailwx.info

Track history (hours):
 
Tides and Currents Weather Stations Pressure Air Temp Water Temp Dewpoint Dewpoint Depression Visibility Wind Speed Wind Dir Waves Ship Positions

Trabzon

Last reported at 2017-Oct-01 04:58 UTC. Time now 2017-Oct-18 15:23 UTC.
Position N 28°21' W 013°26'.
Warning: this ship's position is 17 days out of date.

Length 229 m; draft 7.6 m.

Type: Cargo ship. MMSI: 215679000.

Date/timePositionNaut miles runAvg speedWind from/ knotsBaromVisibWave heightAir tempDewpointWater temp
2017-Oct-01 04:58N 28°21' W 013°26'1412.3
2017-Oct-01 03:52N 28°32' W 013°18'412.2
2017-Oct-01 03:30N 28°35' W 013°15'612.4
2017-Oct-01 03:00N 28°41' W 013°11'58112.3
2017-Sep-29 03:52N 35°58' W 005°37'411.2
2017-Sep-29 03:30N 35°59' W 005°32'510.9
2017-Sep-29 03:00N 36°00' W 005°26'5 9.6
2017-Sep-29 02:30N 36°05' W 005°23'4 7.1
2017-Sep-29 02:00N 36°08' W 005°23'0 0.2
2017-Sep-29 01:27N 36°08' W 005°23'0 0.1
2017-Sep-29 01:00N 36°08' W 005°23'0 0.0
2017-Sep-29 00:18N 36°08' W 005°23'0 0.1
2017-Sep-29 00:00N 36°08' W 005°23'0 0.1
2017-Sep-28 23:30N 36°08' W 005°23'0 0.0
2017-Sep-28 22:57N 36°08' W 005°23'0 0.0
2017-Sep-28 22:27N 36°08' W 005°23'0 0.0
2017-Sep-28 22:00N 36°08' W 005°23'0 0.1
2017-Sep-28 21:30N 36°08' W 005°23'1 2.4
2017-Sep-28 21:00N 36°07' W 005°23'3 5.2
2017-Sep-28 20:30N 36°05' W 005°21'4 7.8
2017-Sep-28 20:00N 36°06' W 005°16'4 8.6
2017-Sep-28 19:30N 36°07' W 005°11'0 0.2
2017-Sep-28 19:00N 36°07' W 005°11'175 8.8
2017-Sep-27 23:12N 36°41' W 001°37'210.0
2017-Sep-27 23:00N 36°42' W 001°35'510.8
2017-Sep-27 22:30N 36°45' W 001°29'611.2
2017-Sep-27 21:56N 36°49' W 001°23'1011.5
2017-Sep-27 21:06N 36°54' W 001°13'111.4
2017-Sep-27 20:59N 36°54' W 001°11'2011.5
2017-Sep-27 19:14N 37°04' W 000°49'312.0
2017-Sep-27 18:59N 37°06' W 000°46'14311.3
2017-Sep-27 06:20N 38°18' E 001°50'2311.4
2017-Sep-27 04:19N 38°30' E 002°15'411.2
2017-Sep-27 04:00N 38°32' E 002°19'611.1
2017-Sep-27 03:30N 38°35' E 002°25'611.1
2017-Sep-27 03:00N 38°38' E 002°31'611.2
2017-Sep-27 02:30N 38°40' E 002°37'611.3
2017-Sep-27 02:00N 38°43' E 002°43'611.3
2017-Sep-27 01:30N 38°46' E 002°50'511.2
2017-Sep-27 01:00N 38°49' E 002°56'510.8
2017-Sep-27 00:30N 38°52' E 003°02'510.7
2017-Sep-27 00:00N 38°54' E 003°08'510.7
2017-Sep-26 23:30N 38°57' E 003°14'510.7
2017-Sep-26 23:00N 38°60' E 003°19'510.7
2017-Sep-26 22:30N 39°03' E 003°25'510.6
2017-Sep-26 22:00N 39°05' E 003°31'510.7
2017-Sep-26 21:30N 39°08' E 003°37'611.0
2017-Sep-26 21:00N 39°11' E 003°43'611.2
2017-Sep-26 20:30N 39°14' E 003°50'  
Track history (hours):
 
Tides and Currents Weather Stations Pressure Air Temp Water Temp Dewpoint Dewpoint Depression Visibility Wind Speed Wind Dir Waves Ship Positions

Trabzon

Last reported at 2017-Oct-01 04:58 UTC. Time now 2017-Oct-18 15:23 UTC.
Position N 28°21' W 013°26'.
Warning: this ship's position is 17 days out of date.

Length 229 m; draft 7.6 m.

Type: Cargo ship. MMSI: 215679000.

Date/timePositionNaut miles runAvg speedWind from/ knotsBaromVisibWave heightAir tempDewpointWater temp
2017-Oct-01 04:58N 28°21' W 013°26'1412.3
2017-Oct-01 03:52N 28°32' W 013°18'412.2
2017-Oct-01 03:30N 28°35' W 013°15'612.4
2017-Oct-01 03:00N 28°41' W 013°11'58112.3
2017-Sep-29 03:52N 35°58' W 005°37'411.2
2017-Sep-29 03:30N 35°59' W 005°32'510.9
2017-Sep-29 03:00N 36°00' W 005°26'5 9.6
2017-Sep-29 02:30N 36°05' W 005°23'4 7.1
2017-Sep-29 02:00N 36°08' W 005°23'0 0.2
2017-Sep-29 01:27N 36°08' W 005°23'0 0.1
2017-Sep-29 01:00N 36°08' W 005°23'0 0.0
2017-Sep-29 00:18N 36°08' W 005°23'0 0.1
2017-Sep-29 00:00N 36°08' W 005°23'0 0.1
2017-Sep-28 23:30N 36°08' W 005°23'0 0.0
2017-Sep-28 22:57N 36°08' W 005°23'0 0.0
2017-Sep-28 22:27N 36°08' W 005°23'0 0.0
2017-Sep-28 22:00N 36°08' W 005°23'0 0.1
2017-Sep-28 21:30N 36°08' W 005°23'1 2.4
2017-Sep-28 21:00N 36°07' W 005°23'3 5.2
2017-Sep-28 20:30N 36°05' W 005°21'4 7.8
2017-Sep-28 20:00N 36°06' W 005°16'4 8.6
2017-Sep-28 19:30N 36°07' W 005°11'0 0.2
2017-Sep-28 19:00N 36°07' W 005°11'175 8.8
2017-Sep-27 23:12N 36°41' W 001°37'210.0
2017-Sep-27 23:00N 36°42' W 001°35'510.8
2017-Sep-27 22:30N 36°45' W 001°29'611.2
2017-Sep-27 21:56N 36°49' W 001°23'1011.5
2017-Sep-27 21:06N 36°54' W 001°13'111.4
2017-Sep-27 20:59N 36°54' W 001°11'2011.5
2017-Sep-27 19:14N 37°04' W 000°49'312.0
2017-Sep-27 18:59N 37°06' W 000°46'14311.3
2017-Sep-27 06:20N 38°18' E 001°50'2311.4
2017-Sep-27 04:19N 38°30' E 002°15'411.2
2017-Sep-27 04:00N 38°32' E 002°19'611.1
2017-Sep-27 03:30N 38°35' E 002°25'611.1
2017-Sep-27 03:00N 38°38' E 002°31'611.2
2017-Sep-27 02:30N 38°40' E 002°37'611.3
2017-Sep-27 02:00N 38°43' E 002°43'611.3
2017-Sep-27 01:30N 38°46' E 002°50'511.2
2017-Sep-27 01:00N 38°49' E 002°56'510.8
2017-Sep-27 00:30N 38°52' E 003°02'510.7
2017-Sep-27 00:00N 38°54' E 003°08'510.7
2017-Sep-26 23:30N 38°57' E 003°14'510.7
2017-Sep-26 23:00N 38°60' E 003°19'510.7
2017-Sep-26 22:30N 39°03' E 003°25'510.6
2017-Sep-26 22:00N 39°05' E 003°31'510.7
2017-Sep-26 21:30N 39°08' E 003°37'611.0
2017-Sep-26 21:00N 39°11' E 003°43'611.2
2017-Sep-26 20:30N 39°14' E 003°50'  

Dump ship's entire track history